Terminal Aerodrome Forecast
Issued by NWS

Home | Current Version | Previous Version | Text Only | Print | Product List | Glossary On
Versions: 1 2 3 4 5 6 7 8 9 10 11 12 13 14 15 16 17 18 19 20
000
FTUS44 KSJT 302333
TAFJCT
TAF
KJCT 302333Z 3100/3124 15009KT P6SM SCT050
     FM310400 VRB05KT P6SM SCT040
     FM310700 VRB04KT P6SM VCTS OVC015CB
     FM311800 14008KT P6SM VCTS BKN040CB BKN250=

USA.gov is the U.S. government's official web portal to all federal, state and local government web resources and services.